sensor_id;sensor_type;location;lat;lon;timestamp;pressure;altitude;pressure_sealevel;temperature;humidity
54248;BME280;40161;39.768;2.722;2023-12-20T00:01:00;102004.81;;;5.77;99.36
54248;BME280;40161;39.768;2.722;2023-12-20T00:03:26;101991.28;;;5.44;100.00
54248;BME280;40161;39.768;2.722;2023-12-20T00:05:51;101989.94;;;5.28;100.00
54248;BME280;40161;39.768;2.722;2023-12-20T00:08:17;101977.69;;;5.44;100.00
54248;BME280;40161;39.768;2.722;2023-12-20T00:10:43;101976.38;;;5.69;100.00
54248;BME280;40161;39.768;2.722;2023-12-20T00:13:10;101985.00;;;5.43;98.97
54248;BME280;40161;39.768;2.722;2023-12-20T00:15:35;101985.91;;;5.25;100.00
54248;BME280;40161;39.768;2.722;2023-12-20T00:18:01;101985.13;;;5.06;100.00
54248;BME280;40161;39.768;2.722;2023-12-20T00:20:27;101987.94;;;5.00;100.00
54248;BME280;40161;39.768;2.722;2023-12-20T00:22:56;101964.19;;;5.06;100.00
54248;BME280;40161;39.768;2.722;2023-12-20T00:25:23;101982.78;;;5.32;100.00
54248;BME280;40161;39.768;2.722;2023-12-20T00:27:48;101970.91;;;5.41;100.00
54248;BME280;40161;39.768;2.722;2023-12-20T00:30:14;101962.97;;;5.59;100.00
54248;BME280;40161;39.768;2.722;2023-12-20T00:32:39;101957.19;;;5.33;98.63
54248;BME280;40161;39.768;2.722;2023-12-20T00:35:12;101958.03;;;5.00;100.00
54248;BME280;40161;39.768;2.722;2023-12-20T00:37:38;101958.97;;;5.10;100.00
54248;BME280;40161;39.768;2.722;2023-12-20T00:40:04;101935.63;;;4.90;100.00
54248;BME280;40161;39.768;2.722;2023-12-20T00:42:29;101927.19;;;5.05;100.00
54248;BME280;40161;39.768;2.722;2023-12-20T00:44:55;101939.16;;;5.37;99.28
54248;BME280;40161;39.768;2.722;2023-12-20T00:47:21;101926.03;;;5.39;97.52
54248;BME280;40161;39.768;2.722;2023-12-20T00:49:47;101916.91;;;5.16;97.12
54248;BME280;40161;39.768;2.722;2023-12-20T00:52:12;101906.19;;;4.92;98.84
54248;BME280;40161;39.768;2.722;2023-12-20T00:54:38;101899.06;;;4.96;99.54
54248;BME280;40161;39.768;2.722;2023-12-20T00:57:04;101909.94;;;4.96;100.00
54248;BME280;40161;39.768;2.722;2023-12-20T00:59:30;101899.28;;;4.99;100.00
54248;BME280;40161;39.768;2.722;2023-12-20T01:01:55;101889.69;;;5.02;100.00
54248;BME280;40161;39.768;2.722;2023-12-20T01:04:21;101864.19;;;4.98;100.00
54248;BME280;40161;39.768;2.722;2023-12-20T01:06:47;101878.94;;;5.24;99.67
54248;BME280;40161;39.768;2.722;2023-12-20T01:09:14;101886.00;;;5.39;99.49
54248;BME280;40161;39.768;2.722;2023-12-20T01:11:39;101890.63;;;5.11;97.31
54248;BME280;40161;39.768;2.722;2023-12-20T01:14:05;101861.59;;;4.60;98.79
54248;BME280;40161;39.768;2.722;2023-12-20T01:16:30;101875.22;;;4.74;100.00
54248;BME280;40161;39.768;2.722;2023-12-20T01:18:56;101864.53;;;4.64;100.00
54248;BME280;40161;39.768;2.722;2023-12-20T01:21:22;101875.19;;;4.60;99.91
54248;BME280;40161;39.768;2.722;2023-12-20T01:23:47;101872.34;;;4.84;100.00
54248;BME280;40161;39.768;2.722;2023-12-20T01:26:14;101875.41;;;5.10;99.66
54248;BME280;40161;39.768;2.722;2023-12-20T01:28:40;101846.97;;;4.89;98.28
54248;BME280;40161;39.768;2.722;2023-12-20T01:31:05;101868.34;;;5.09;98.40
54248;BME280;40161;39.768;2.722;2023-12-20T01:33:31;101866.66;;;5.13;98.32
54248;BME280;40161;39.768;2.722;2023-12-20T01:35:57;101868.00;;;4.83;98.09
54248;BME280;40161;39.768;2.722;2023-12-20T01:38:22;101870.44;;;4.98;99.01
54248;BME280;40161;39.768;2.722;2023-12-20T01:40:48;101877.53;;;5.13;98.76
54248;BME280;40161;39.768;2.722;2023-12-20T01:43:13;101894.25;;;5.07;96.59
54248;BME280;40161;39.768;2.722;2023-12-20T01:45:39;101897.47;;;5.09;97.81
54248;BME280;40161;39.768;2.722;2023-12-20T01:48:05;101881.56;;;4.69;98.22
54248;BME280;40161;39.768;2.722;2023-12-20T01:50:36;101881.81;;;4.87;100.00
54248;BME280;40161;39.768;2.722;2023-12-20T01:53:03;101884.91;;;5.13;99.01
54248;BME280;40161;39.768;2.722;2023-12-20T01:55:33;101871.97;;;5.05;98.37
54248;BME280;40161;39.768;2.722;2023-12-20T01:58:00;101882.22;;;4.94;96.06
54248;BME280;40161;39.768;2.722;2023-12-20T02:00:30;101886.13;;;4.88;98.46
54248;BME280;40161;39.768;2.722;2023-12-20T02:02:56;101889.72;;;5.16;97.47
54248;BME280;40161;39.768;2.722;2023-12-20T02:05:25;101870.56;;;5.07;96.06
54248;BME280;40161;39.768;2.722;2023-12-20T02:07:51;101887.72;;;5.21;95.63
54248;BME280;40161;39.768;2.722;2023-12-20T02:10:16;101889.31;;;5.36;95.20
54248;BME280;40161;39.768;2.722;2023-12-20T02:12:42;101864.81;;;5.22;93.52
54248;BME280;40161;39.768;2.722;2023-12-20T02:15:08;101887.19;;;5.33;93.23
54248;BME280;40161;39.768;2.722;2023-12-20T02:17:33;101859.88;;;5.11;93.93
54248;BME280;40161;39.768;2.722;2023-12-20T02:19:59;101837.91;;;4.93;92.58
54248;BME280;40161;39.768;2.722;2023-12-20T02:22:25;101853.50;;;5.02;92.54
54248;BME280;40161;39.768;2.722;2023-12-20T02:24:51;101858.16;;;4.55;93.05
54248;BME280;40161;39.768;2.722;2023-12-20T02:27:18;101860.63;;;4.70;96.35
54248;BME280;40161;39.768;2.722;2023-12-20T02:29:46;101876.78;;;4.94;94.66
54248;BME280;40161;39.768;2.722;2023-12-20T02:32:12;101868.81;;;4.84;95.32
54248;BME280;40161;39.768;2.722;2023-12-20T02:34:38;101867.63;;;5.04;94.89
54248;BME280;40161;39.768;2.722;2023-12-20T02:37:03;101867.53;;;5.09;93.99
54248;BME280;40161;39.768;2.722;2023-12-20T02:39:29;101850.59;;;4.98;93.76
54248;BME280;40161;39.768;2.722;2023-12-20T02:41:55;101835.06;;;4.98;94.18
54248;BME280;40161;39.768;2.722;2023-12-20T02:44:21;101861.59;;;5.07;93.55
54248;BME280;40161;39.768;2.722;2023-12-20T02:46:46;101840.31;;;4.95;95.58
54248;BME280;40161;39.768;2.722;2023-12-20T02:49:12;101855.44;;;5.15;95.12
54248;BME280;40161;39.768;2.722;2023-12-20T02:51:37;101851.78;;;4.92;93.20
54248;BME280;40161;39.768;2.722;2023-12-20T02:54:06;101854.38;;;4.69;96.99
54248;BME280;40161;39.768;2.722;2023-12-20T02:56:34;101833.25;;;4.80;96.75
54248;BME280;40161;39.768;2.722;2023-12-20T02:59:00;101836.16;;;4.84;96.09
54248;BME280;40161;39.768;2.722;2023-12-20T03:01:26;101842.25;;;5.08;96.67
54248;BME280;40161;39.768;2.722;2023-12-20T03:03:52;101848.06;;;5.02;96.34
54248;BME280;40161;39.768;2.722;2023-12-20T03:06:18;101849.09;;;5.06;95.95
54248;BME280;40161;39.768;2.722;2023-12-20T03:08:44;101842.94;;;5.00;95.07
54248;BME280;40161;39.768;2.722;2023-12-20T03:11:10;101838.88;;;4.70;95.43
54248;BME280;40161;39.768;2.722;2023-12-20T03:13:36;101822.56;;;4.84;97.12
54248;BME280;40161;39.768;2.722;2023-12-20T03:16:08;101814.19;;;4.66;95.02
54248;BME280;40161;39.768;2.722;2023-12-20T03:18:33;101818.72;;;4.71;97.78
54248;BME280;40161;39.768;2.722;2023-12-20T03:20:59;101830.16;;;5.00;95.90
54248;BME280;40161;39.768;2.722;2023-12-20T03:23:24;101829.13;;;4.96;95.73
54248;BME280;40161;39.768;2.722;2023-12-20T03:25:51;101802.81;;;4.92;95.20
54248;BME280;40161;39.768;2.722;2023-12-20T03:28:17;101822.91;;;4.96;92.66
54248;BME280;40161;39.768;2.722;2023-12-20T03:30:42;101829.41;;;4.81;93.84
54248;BME280;40161;39.768;2.722;2023-12-20T03:33:08;101819.53;;;4.71;94.54
54248;BME280;40161;39.768;2.722;2023-12-20T03:35:34;101823.06;;;4.72;94.60
54248;BME280;40161;39.768;2.722;2023-12-20T03:37:59;101823.88;;;4.72;93.33
54248;BME280;40161;39.768;2.722;2023-12-20T03:40:25;101809.97;;;4.74;95.04
54248;BME280;40161;39.768;2.722;2023-12-20T03:42:51;101822.69;;;5.06;94.36
54248;BME280;40161;39.768;2.722;2023-12-20T03:45:17;101815.63;;;4.91;93.46
54248;BME280;40161;39.768;2.722;2023-12-20T03:47:42;101825.44;;;5.06;94.58
54248;BME280;40161;39.768;2.722;2023-12-20T03:50:08;101824.91;;;5.18;93.61
54248;BME280;40161;39.768;2.722;2023-12-20T03:52:33;101816.22;;;5.02;93.91
54248;BME280;40161;39.768;2.722;2023-12-20T03:54:59;101810.56;;;4.85;93.70
54248;BME280;40161;39.768;2.722;2023-12-20T03:57:24;101808.22;;;4.64;96.21
54248;BME280;40161;39.768;2.722;2023-12-20T03:59:50;101811.41;;;4.85;96.14
54248;BME280;40161;39.768;2.722;2023-12-20T04:02:16;101817.06;;;5.16;94.67
54248;BME280;40161;39.768;2.722;2023-12-20T04:04:43;101807.06;;;4.84;94.64
54248;BME280;40161;39.768;2.722;2023-12-20T04:07:09;101809.97;;;4.74;96.04
54248;BME280;40161;39.768;2.722;2023-12-20T04:09:34;101803.63;;;4.79;96.79
54248;BME280;40161;39.768;2.722;2023-12-20T04:12:00;101794.97;;;4.90;95.44
54248;BME280;40161;39.768;2.722;2023-12-20T04:14:25;101803.34;;;5.08;95.91
54248;BME280;40161;39.768;2.722;2023-12-20T04:16:52;101794.06;;;5.09;94.97
54248;BME280;40161;39.768;2.722;2023-12-20T04:19:17;101797.09;;;5.07;95.28
54248;BME280;40161;39.768;2.722;2023-12-20T04:21:43;101804.53;;;5.02;96.56
54248;BME280;40161;39.768;2.722;2023-12-20T04:24:08;101783.19;;;5.09;95.65
54248;BME280;40161;39.768;2.722;2023-12-20T04:26:34;101793.84;;;5.19;96.23
54248;BME280;40161;39.768;2.722;2023-12-20T04:29:00;101776.31;;;5.11;96.58
54248;BME280;40161;39.768;2.722;2023-12-20T04:31:25;101750.31;;;5.05;96.25
54248;BME280;40161;39.768;2.722;2023-12-20T04:33:51;101781.25;;;5.09;97.25
54248;BME280;40161;39.768;2.722;2023-12-20T04:36:16;101763.13;;;4.91;98.62
54248;BME280;40161;39.768;2.722;2023-12-20T04:38:42;101763.25;;;4.86;99.46
54248;BME280;40161;39.768;2.722;2023-12-20T04:41:08;101772.41;;;5.04;99.40
54248;BME280;40161;39.768;2.722;2023-12-20T04:43:33;101765.25;;;5.08;98.29
54248;BME280;40161;39.768;2.722;2023-12-20T04:45:59;101766.38;;;4.93;99.50
54248;BME280;40161;39.768;2.722;2023-12-20T04:48:24;101760.22;;;4.87;99.21
54248;BME280;40161;39.768;2.722;2023-12-20T04:50:50;101750.94;;;5.02;99.64
54248;BME280;40161;39.768;2.722;2023-12-20T04:53:16;101758.56;;;5.41;98.97
54248;BME280;40161;39.768;2.722;2023-12-20T04:55:41;101736.06;;;5.36;99.06
54248;BME280;40161;39.768;2.722;2023-12-20T04:58:07;101732.66;;;5.44;99.78
54248;BME280;40161;39.768;2.722;2023-12-20T05:00:33;101734.13;;;5.50;99.03
54248;BME280;40161;39.768;2.722;2023-12-20T05:02:58;101730.50;;;5.55;97.43
54248;BME280;40161;39.768;2.722;2023-12-20T05:05:24;101738.09;;;5.44;97.38
54248;BME280;40161;39.768;2.722;2023-12-20T05:07:49;101724.94;;;5.23;100.00
54248;BME280;40161;39.768;2.722;2023-12-20T05:10:15;101716.47;;;5.11;100.00
54248;BME280;40161;39.768;2.722;2023-12-20T05:12:41;101730.03;;;5.25;100.00
54248;BME280;40161;39.768;2.722;2023-12-20T05:15:07;101742.16;;;5.19;100.00
54248;BME280;40161;39.768;2.722;2023-12-20T05:17:33;101749.53;;;5.05;100.00
54248;BME280;40161;39.768;2.722;2023-12-20T05:19:58;101758.41;;;5.10;100.00
54248;BME280;40161;39.768;2.722;2023-12-20T05:22:24;101751.53;;;5.27;100.00
54248;BME280;40161;39.768;2.722;2023-12-20T05:24:50;101740.53;;;5.32;100.00
54248;BME280;40161;39.768;2.722;2023-12-20T05:27:15;101748.03;;;5.48;100.00
54248;BME280;40161;39.768;2.722;2023-12-20T05:29:41;101751.03;;;5.61;100.00
54248;BME280;40161;39.768;2.722;2023-12-20T05:32:06;101752.94;;;5.60;100.00
54248;BME280;40161;39.768;2.722;2023-12-20T05:34:32;101742.56;;;5.62;100.00
54248;BME280;40161;39.768;2.722;2023-12-20T05:36:58;101749.03;;;5.53;100.00
54248;BME280;40161;39.768;2.722;2023-12-20T05:39:23;101755.47;;;5.57;100.00
54248;BME280;40161;39.768;2.722;2023-12-20T05:41:49;101791.59;;;5.62;100.00
54248;BME280;40161;39.768;2.722;2023-12-20T05:44:15;101797.13;;;5.57;100.00
54248;BME280;40161;39.768;2.722;2023-12-20T05:46:40;101792.50;;;5.58;100.00
54248;BME280;40161;39.768;2.722;2023-12-20T05:49:06;101777.16;;;5.62;100.00
54248;BME280;40161;39.768;2.722;2023-12-20T05:51:32;101785.69;;;5.83;100.00
54248;BME280;40161;39.768;2.722;2023-12-20T05:53:58;101783.66;;;5.88;100.00
54248;BME280;40161;39.768;2.722;2023-12-20T05:56:24;101760.34;;;5.82;100.00
54248;BME280;40161;39.768;2.722;2023-12-20T05:58:49;101764.81;;;5.78;100.00
54248;BME280;40161;39.768;2.722;2023-12-20T06:01:15;101756.94;;;5.77;100.00
54248;BME280;40161;39.768;2.722;2023-12-20T06:03:42;101750.63;;;5.90;100.00
54248;BME280;40161;39.768;2.722;2023-12-20T06:06:09;101739.66;;;5.59;100.00
54248;BME280;40161;39.768;2.722;2023-12-20T06:08:34;101741.91;;;5.43;100.00
54248;BME280;40161;39.768;2.722;2023-12-20T06:11:00;101738.94;;;5.53;100.00
54248;BME280;40161;39.768;2.722;2023-12-20T06:13:25;101749.84;;;5.53;100.00
54248;BME280;40161;39.768;2.722;2023-12-20T06:15:54;101748.56;;;5.51;100.00
54248;BME280;40161;39.768;2.722;2023-12-20T06:18:19;101763.16;;;5.55;100.00
54248;BME280;40161;39.768;2.722;2023-12-20T06:20:45;101742.03;;;5.38;100.00
54248;BME280;40161;39.768;2.722;2023-12-20T06:23:10;101757.31;;;5.61;100.00
54248;BME280;40161;39.768;2.722;2023-12-20T06:25:36;101739.34;;;5.60;100.00
54248;BME280;40161;39.768;2.722;2023-12-20T06:28:02;101741.53;;;5.72;100.00
54248;BME280;40161;39.768;2.722;2023-12-20T06:30:27;101745.47;;;5.66;100.00
54248;BME280;40161;39.768;2.722;2023-12-20T06:32:54;101744.34;;;5.67;100.00
54248;BME280;40161;39.768;2.722;2023-12-20T06:35:20;101729.53;;;5.37;100.00
54248;BME280;40161;39.768;2.722;2023-12-20T06:37:45;101741.31;;;5.32;100.00
54248;BME280;40161;39.768;2.722;2023-12-20T06:40:11;101754.03;;;5.37;100.00
54248;BME280;40161;39.768;2.722;2023-12-20T06:42:37;101771.00;;;5.56;100.00
54248;BME280;40161;39.768;2.722;2023-12-20T06:45:03;101771.44;;;5.50;100.00
54248;BME280;40161;39.768;2.722;2023-12-20T06:47:29;101766.31;;;5.48;100.00
54248;BME280;40161;39.768;2.722;2023-12-20T06:49:54;101748.66;;;5.45;100.00
54248;BME280;40161;39.768;2.722;2023-12-20T06:52:20;101775.84;;;5.59;100.00
54248;BME280;40161;39.768;2.722;2023-12-20T06:54:45;101779.28;;;5.65;100.00
54248;BME280;40161;39.768;2.722;2023-12-20T06:57:11;101762.38;;;5.54;100.00
54248;BME280;40161;39.768;2.722;2023-12-20T06:59:40;101775.75;;;5.64;100.00
54248;BME280;40161;39.768;2.722;2023-12-20T07:02:06;101782.06;;;5.74;100.00
54248;BME280;40161;39.768;2.722;2023-12-20T07:04:31;101764.13;;;5.72;100.00
54248;BME280;40161;39.768;2.722;2023-12-20T07:06:57;101770.84;;;5.39;100.00
54248;BME280;40161;39.768;2.722;2023-12-20T07:09:26;101784.44;;;5.53;100.00
54248;BME280;40161;39.768;2.722;2023-12-20T07:11:52;101775.66;;;5.56;100.00
54248;BME280;40161;39.768;2.722;2023-12-20T07:14:18;101766.75;;;5.64;100.00
54248;BME280;40161;39.768;2.722;2023-12-20T07:16:44;101774.09;;;5.77;100.00
54248;BME280;40161;39.768;2.722;2023-12-20T07:19:09;101773.38;;;5.85;100.00
54248;BME280;40161;39.768;2.722;2023-12-20T07:21:35;101759.91;;;5.66;100.00
54248;BME280;40161;39.768;2.722;2023-12-20T07:24:00;101763.09;;;5.82;100.00
54248;BME280;40161;39.768;2.722;2023-12-20T07:26:26;101748.16;;;5.80;100.00
54248;BME280;40161;39.768;2.722;2023-12-20T07:28:51;101751.13;;;5.19;100.00
54248;BME280;40161;39.768;2.722;2023-12-20T07:31:17;101764.94;;;5.37;100.00
54248;BME280;40161;39.768;2.722;2023-12-20T07:33:43;101759.78;;;5.35;100.00
54248;BME280;40161;39.768;2.722;2023-12-20T07:36:08;101765.78;;;5.46;100.00
54248;BME280;40161;39.768;2.722;2023-12-20T07:38:34;101769.44;;;5.41;100.00
54248;BME280;40161;39.768;2.722;2023-12-20T07:41:00;101765.31;;;5.44;100.00
54248;BME280;40161;39.768;2.722;2023-12-20T07:43:26;101770.25;;;5.42;100.00
54248;BME280;40161;39.768;2.722;2023-12-20T07:45:51;101761.72;;;5.21;100.00
54248;BME280;40161;39.768;2.722;2023-12-20T07:48:17;101767.41;;;5.47;100.00
54248;BME280;40161;39.768;2.722;2023-12-20T07:50:42;101763.78;;;5.52;100.00
54248;BME280;40161;39.768;2.722;2023-12-20T07:53:08;101759.03;;;5.43;100.00
54248;BME280;40161;39.768;2.722;2023-12-20T07:55:33;101773.69;;;5.70;100.00
54248;BME280;40161;39.768;2.722;2023-12-20T07:58:00;101774.41;;;5.76;100.00
54248;BME280;40161;39.768;2.722;2023-12-20T08:00:26;101769.00;;;5.84;100.00
54248;BME280;40161;39.768;2.722;2023-12-20T08:02:51;101760.66;;;5.44;100.00
54248;BME280;40161;39.768;2.722;2023-12-20T08:05:17;101759.97;;;5.39;100.00
54248;BME280;40161;39.768;2.722;2023-12-20T08:07:43;101781.19;;;5.64;100.00
54248;BME280;40161;39.768;2.722;2023-12-20T08:10:08;101774.03;;;5.68;100.00
54248;BME280;40161;39.768;2.722;2023-12-20T08:12:34;101769.56;;;5.72;100.00
54248;BME280;40161;39.768;2.722;2023-12-20T08:15:00;101770.25;;;5.78;100.00
54248;BME280;40161;39.768;2.722;2023-12-20T08:17:26;101769.38;;;5.91;100.00
54248;BME280;40161;39.768;2.722;2023-12-20T08:19:52;101774.94;;;6.00;100.00
54248;BME280;40161;39.768;2.722;2023-12-20T08:22:17;101784.91;;;6.05;100.00
54248;BME280;40161;39.768;2.722;2023-12-20T08:24:43;101783.22;;;5.95;100.00
54248;BME280;40161;39.768;2.722;2023-12-20T08:27:08;101766.34;;;6.07;100.00
54248;BME280;40161;39.768;2.722;2023-12-20T08:29:35;101766.56;;;6.19;100.00
54248;BME280;40161;39.768;2.722;2023-12-20T08:32:01;101775.78;;;6.32;100.00
54248;BME280;40161;39.768;2.722;2023-12-20T08:34:27;101756.84;;;6.27;100.00
54248;BME280;40161;39.768;2.722;2023-12-20T08:36:53;101775.94;;;6.27;100.00
54248;BME280;40161;39.768;2.722;2023-12-20T08:39:19;101773.50;;;6.25;100.00
54248;BME280;40161;39.768;2.722;2023-12-20T08:41:45;101792.13;;;6.23;100.00
54248;BME280;40161;39.768;2.722;2023-12-20T08:44:10;101793.63;;;6.15;100.00
54248;BME280;40161;39.768;2.722;2023-12-20T08:46:36;101777.28;;;6.15;100.00
54248;BME280;40161;39.768;2.722;2023-12-20T08:49:02;101802.84;;;6.20;100.00
54248;BME280;40161;39.768;2.722;2023-12-20T08:51:28;101799.09;;;6.15;100.00
54248;BME280;40161;39.768;2.722;2023-12-20T08:53:54;101800.34;;;6.32;100.00
54248;BME280;40161;39.768;2.722;2023-12-20T08:56:20;101809.81;;;6.34;100.00
54248;BME280;40161;39.768;2.722;2023-12-20T08:58:46;101812.91;;;6.41;100.00
54248;BME280;40161;39.768;2.722;2023-12-20T09:01:13;101805.53;;;6.42;100.00
54248;BME280;40161;39.768;2.722;2023-12-20T09:03:39;101812.03;;;6.55;100.00
54248;BME280;40161;39.768;2.722;2023-12-20T09:06:05;101808.31;;;6.51;100.00
54248;BME280;40161;39.768;2.722;2023-12-20T09:08:30;101799.69;;;6.57;100.00
54248;BME280;40161;39.768;2.722;2023-12-20T09:10:56;101801.97;;;6.64;100.00
54248;BME280;40161;39.768;2.722;2023-12-20T09:13:22;101803.78;;;6.69;100.00
54248;BME280;40161;39.768;2.722;2023-12-20T09:15:54;101803.97;;;6.81;100.00
54248;BME280;40161;39.768;2.722;2023-12-20T09:18:20;101794.53;;;6.87;100.00
54248;BME280;40161;39.768;2.722;2023-12-20T09:20:45;101800.78;;;6.79;100.00
54248;BME280;40161;39.768;2.722;2023-12-20T09:23:11;101776.22;;;6.79;100.00
54248;BME280;40161;39.768;2.722;2023-12-20T09:25:37;101776.09;;;6.93;100.00
54248;BME280;40161;39.768;2.722;2023-12-20T09:28:03;101765.50;;;6.91;100.00
54248;BME280;40161;39.768;2.722;2023-12-20T09:30:28;101757.81;;;7.02;100.00
54248;BME280;40161;39.768;2.722;2023-12-20T09:32:55;101753.19;;;7.11;100.00
54248;BME280;40161;39.768;2.722;2023-12-20T09:35:21;101748.56;;;7.20;100.00
54248;BME280;40161;39.768;2.722;2023-12-20T09:37:46;101734.75;;;7.25;100.00
54248;BME280;40161;39.768;2.722;2023-12-20T09:40:18;101738.63;;;7.42;100.00
54248;BME280;40161;39.768;2.722;2023-12-20T09:42:57;101737.84;;;7.58;100.00
54248;BME280;40161;39.768;2.722;2023-12-20T09:45:23;101736.72;;;7.68;100.00
54248;BME280;40161;39.768;2.722;2023-12-20T09:47:54;101707.47;;;7.69;100.00
54248;BME280;40161;39.768;2.722;2023-12-20T09:50:21;101720.78;;;7.88;100.00
54248;BME280;40161;39.768;2.722;2023-12-20T09:52:51;101713.09;;;7.98;100.00
54248;BME280;40161;39.768;2.722;2023-12-20T09:55:18;101710.16;;;8.12;100.00
54248;BME280;40161;39.768;2.722;2023-12-20T09:57:45;101688.09;;;8.08;100.00
54248;BME280;40161;39.768;2.722;2023-12-20T10:00:11;101693.38;;;8.22;100.00
54248;BME280;40161;39.768;2.722;2023-12-20T10:02:38;101700.41;;;8.49;100.00
54248;BME280;40161;39.768;2.722;2023-12-20T10:05:07;101702.91;;;8.63;100.00
54248;BME280;40161;39.768;2.722;2023-12-20T10:07:35;101684.88;;;8.71;100.00
54248;BME280;40161;39.768;2.722;2023-12-20T10:10:01;101673.88;;;8.79;100.00
54248;BME280;40161;39.768;2.722;2023-12-20T10:12:27;101664.34;;;8.86;100.00
54248;BME280;40161;39.768;2.722;2023-12-20T10:14:53;101676.91;;;9.08;100.00
54248;BME280;40161;39.768;2.722;2023-12-20T10:17:21;101659.50;;;9.12;100.00
54248;BME280;40161;39.768;2.722;2023-12-20T10:19:46;101676.88;;;9.37;100.00
54248;BME280;40161;39.768;2.722;2023-12-20T10:22:12;101662.16;;;9.42;100.00
54248;BME280;40161;39.768;2.722;2023-12-20T10:24:38;101684.53;;;9.65;100.00
54248;BME280;40161;39.768;2.722;2023-12-20T10:27:06;101684.56;;;9.77;100.00
54248;BME280;40161;39.768;2.722;2023-12-20T10:29:35;101670.66;;;9.82;100.00
54248;BME280;40161;39.768;2.722;2023-12-20T10:32:26;101678.34;;;10.01;100.00
54248;BME280;40161;39.768;2.722;2023-12-20T10:34:53;101677.69;;;10.04;100.00
54248;BME280;40161;39.768;2.722;2023-12-20T10:37:19;101682.84;;;10.18;100.00
54248;BME280;40161;39.768;2.722;2023-12-20T10:39:50;101690.78;;;10.32;100.00
54248;BME280;40161;39.768;2.722;2023-12-20T10:42:20;101691.50;;;10.41;100.00
54248;BME280;40161;39.768;2.722;2023-12-20T10:44:47;101696.44;;;10.48;100.00
54248;BME280;40161;39.768;2.722;2023-12-20T10:47:13;101707.75;;;10.58;100.00
54248;BME280;40161;39.768;2.722;2023-12-20T10:49:39;101704.53;;;10.56;100.00
54248;BME280;40161;39.768;2.722;2023-12-20T10:52:06;101711.66;;;10.69;99.98
54248;BME280;40161;39.768;2.722;2023-12-20T10:54:32;101718.53;;;10.76;98.49
54248;BME280;40161;39.768;2.722;2023-12-20T10:56:58;101714.28;;;10.78;96.85
54248;BME280;40161;39.768;2.722;2023-12-20T10:59:27;101721.84;;;10.81;97.11
54248;BME280;40161;39.768;2.722;2023-12-20T11:01:55;101727.56;;;10.88;96.01
54248;BME280;40161;39.768;2.722;2023-12-20T11:07:17;101761.31;;;11.13;93.84
54248;BME280;40161;39.768;2.722;2023-12-20T11:09:54;101756.84;;;11.21;93.50
54248;BME280;40161;39.768;2.722;2023-12-20T11:12:35;101753.19;;;11.29;93.62
54248;BME280;40161;39.768;2.722;2023-12-20T11:15:03;101754.88;;;11.34;94.08
54248;BME280;40161;39.768;2.722;2023-12-20T11:17:29;101747.09;;;11.36;94.31
54248;BME280;40161;39.768;2.722;2023-12-20T11:22:22;101743.75;;;11.83;97.17
54248;BME280;40161;39.768;2.722;2023-12-20T11:24:51;101722.00;;;11.78;97.19
54248;BME280;40161;39.768;2.722;2023-12-20T11:27:18;101727.50;;;12.06;98.78
54248;BME280;40161;39.768;2.722;2023-12-20T11:29:51;101734.88;;;12.46;97.90
54248;BME280;40161;39.768;2.722;2023-12-20T11:34:59;101747.03;;;12.61;97.95
54248;BME280;40161;39.768;2.722;2023-12-20T11:37:35;101736.44;;;12.63;96.01
54248;BME280;40161;39.768;2.722;2023-12-20T11:40:22;101740.19;;;12.70;95.46
54248;BME280;40161;39.768;2.722;2023-12-20T11:42:49;101739.19;;;12.63;96.20
54248;BME280;40161;39.768;2.722;2023-12-20T11:45:18;101740.03;;;12.63;96.27
54248;BME280;40161;39.768;2.722;2023-12-20T11:47:49;101750.94;;;12.75;97.32
54248;BME280;40161;39.768;2.722;2023-12-20T11:50:16;101738.16;;;12.67;96.42
54248;BME280;40161;39.768;2.722;2023-12-20T11:52:41;101746.94;;;12.73;97.76
54248;BME280;40161;39.768;2.722;2023-12-20T11:55:07;101741.50;;;12.76;98.96
54248;BME280;40161;39.768;2.722;2023-12-20T11:57:33;101726.84;;;12.72;98.91
54248;BME280;40161;39.768;2.722;2023-12-20T11:59:59;101721.34;;;12.72;99.40
54248;BME280;40161;39.768;2.722;2023-12-20T12:02:25;101719.75;;;12.71;99.21
54248;BME280;40161;39.768;2.722;2023-12-20T12:04:50;101707.94;;;12.71;98.86
54248;BME280;40161;39.768;2.722;2023-12-20T12:07:17;101707.31;;;12.77;99.24
54248;BME280;40161;39.768;2.722;2023-12-20T12:09:43;101693.81;;;12.72;98.74
54248;BME280;40161;39.768;2.722;2023-12-20T12:12:10;101700.19;;;12.76;97.76
54248;BME280;40161;39.768;2.722;2023-12-20T12:14:37;101692.00;;;12.80;97.62
54248;BME280;40161;39.768;2.722;2023-12-20T12:17:04;101704.81;;;12.88;97.65
54248;BME280;40161;39.768;2.722;2023-12-20T12:19:29;101702.13;;;12.92;96.42
54248;BME280;40161;39.768;2.722;2023-12-20T12:22:07;101697.88;;;12.94;95.70
54248;BME280;40161;39.768;2.722;2023-12-20T12:24:35;101698.69;;;12.95;94.75
54248;BME280;40161;39.768;2.722;2023-12-20T12:27:01;101701.06;;;12.96;94.85
54248;BME280;40161;39.768;2.722;2023-12-20T12:29:27;101700.72;;;12.98;94.26
54248;BME280;40161;39.768;2.722;2023-12-20T12:31:53;101686.03;;;12.94;93.65
54248;BME280;40161;39.768;2.722;2023-12-20T12:34:18;101689.25;;;12.96;93.62
54248;BME280;40161;39.768;2.722;2023-12-20T12:36:44;101671.84;;;12.92;93.52
54248;BME280;40161;39.768;2.722;2023-12-20T12:39:16;101688.59;;;13.02;93.22
54248;BME280;40161;39.768;2.722;2023-12-20T12:41:42;101685.06;;;13.02;93.21
54248;BME280;40161;39.768;2.722;2023-12-20T12:44:08;101689.47;;;13.06;93.45
54248;BME280;40161;39.768;2.722;2023-12-20T12:46:34;101675.44;;;13.12;92.18
54248;BME280;40161;39.768;2.722;2023-12-20T12:49:00;101667.16;;;13.12;92.95
54248;BME280;40161;39.768;2.722;2023-12-20T12:51:26;101667.25;;;13.15;92.75
54248;BME280;40161;39.768;2.722;2023-12-20T12:53:51;101676.56;;;13.26;92.98
54248;BME280;40161;39.768;2.722;2023-12-20T12:56:17;101682.44;;;13.25;92.56